sensor_id;sensor_type;location;lat;lon;timestamp;pressure;altitude;pressure_sealevel;temperature
32039;BMP280;18549;42.286;22.688;2023-04-25T00:02:20;94937.12;;;17.17
32039;BMP280;18549;42.286;22.688;2023-04-25T00:04:47;94930.56;;;17.17
32039;BMP280;18549;42.286;22.688;2023-04-25T00:07:15;94943.09;;;17.17
32039;BMP280;18549;42.286;22.688;2023-04-25T00:09:44;94941.50;;;17.16
32039;BMP280;18549;42.286;22.688;2023-04-25T00:12:11;94928.97;;;17.16
32039;BMP280;18549;42.286;22.688;2023-04-25T00:14:37;94923.97;;;17.16
32039;BMP280;18549;42.286;22.688;2023-04-25T00:17:04;94927.25;;;17.16
32039;BMP280;18549;42.286;22.688;2023-04-25T00:19:31;94922.09;;;17.17
32039;BMP280;18549;42.286;22.688;2023-04-25T00:22:00;94920.06;;;17.13
32039;BMP280;18549;42.286;22.688;2023-04-25T00:24:27;94911.41;;;17.08
32039;BMP280;18549;42.286;22.688;2023-04-25T00:26:55;94905.75;;;17.06
32039;BMP280;18549;42.286;22.688;2023-04-25T00:29:22;94907.31;;;17.07
32039;BMP280;18549;42.286;22.688;2023-04-25T00:31:48;94910.47;;;17.09
32039;BMP280;18549;42.286;22.688;2023-04-25T00:34:15;94907.31;;;17.07
32039;BMP280;18549;42.286;22.688;2023-04-25T00:36:42;94911.56;;;17.06
32039;BMP280;18549;42.286;22.688;2023-04-25T00:39:09;94916.41;;;17.08
32039;BMP280;18549;42.286;22.688;2023-04-25T00:41:35;94909.03;;;17.06
32039;BMP280;18549;42.286;22.688;2023-04-25T00:44:05;94899.16;;;16.97
32039;BMP280;18549;42.286;22.688;2023-04-25T00:46:33;94906.47;;;16.90
32039;BMP280;18549;42.286;22.688;2023-04-25T00:49:01;94906.00;;;16.87
32039;BMP280;18549;42.286;22.688;2023-04-25T00:51:28;94891.47;;;16.90
32039;BMP280;18549;42.286;22.688;2023-04-25T00:53:55;94888.78;;;16.84
32039;BMP280;18549;42.286;22.688;2023-04-25T00:56:22;94891.59;;;16.81
32039;BMP280;18549;42.286;22.688;2023-04-25T00:58:53;94886.72;;;16.80
32039;BMP280;18549;42.286;22.688;2023-04-25T01:01:23;94887.84;;;16.85
32039;BMP280;18549;42.286;22.688;2023-04-25T01:03:50;94875.28;;;16.77
32039;BMP280;18549;42.286;22.688;2023-04-25T01:06:17;94867.62;;;16.71
32039;BMP280;18549;42.286;22.688;2023-04-25T01:08:44;94867.62;;;16.71
32039;BMP280;18549;42.286;22.688;2023-04-25T01:11:11;94870.75;;;16.73
32039;BMP280;18549;42.286;22.688;2023-04-25T01:13:38;94870.59;;;16.66
32039;BMP280;18549;42.286;22.688;2023-04-25T01:16:05;94884.31;;;16.62
32039;BMP280;18549;42.286;22.688;2023-04-25T01:18:33;94882.47;;;16.64
32039;BMP280;18549;42.286;22.688;2023-04-25T01:21:08;94876.94;;;16.61
32039;BMP280;18549;42.286;22.688;2023-04-25T01:23:36;94875.88;;;16.63
32039;BMP280;18549;42.286;22.688;2023-04-25T01:26:03;94876.38;;;16.67
32039;BMP280;18549;42.286;22.688;2023-04-25T01:28:30;94874.66;;;16.67
32039;BMP280;18549;42.286;22.688;2023-04-25T01:30:58;94871.50;;;16.65
32039;BMP280;18549;42.286;22.688;2023-04-25T01:33:25;94874.94;;;16.64
32039;BMP280;18549;42.286;22.688;2023-04-25T01:35:52;94869.44;;;16.61
32039;BMP280;18549;42.286;22.688;2023-04-25T01:38:20;94879.44;;;16.61
32039;BMP280;18549;42.286;22.688;2023-04-25T01:40:49;94877.25;;;16.58
32039;BMP280;18549;42.286;22.688;2023-04-25T01:43:17;94871.63;;;16.56
32039;BMP280;18549;42.286;22.688;2023-04-25T01:45:43;94871.47;;;16.57
32039;BMP280;18549;42.286;22.688;2023-04-25T01:48:12;94879.44;;;16.53
32039;BMP280;18549;42.286;22.688;2023-04-25T01:50:39;94881.28;;;16.51
32039;BMP280;18549;42.286;22.688;2023-04-25T01:53:09;94872.06;;;16.51
32039;BMP280;18549;42.286;22.688;2023-04-25T01:55:37;94877.69;;;16.46
32039;BMP280;18549;42.286;22.688;2023-04-25T01:58:04;94865.44;;;16.35
32039;BMP280;18549;42.286;22.688;2023-04-25T02:00:34;94851.84;;;16.37
32039;BMP280;18549;42.286;22.688;2023-04-25T02:03:03;94854.97;;;16.39
32039;BMP280;18549;42.286;22.688;2023-04-25T02:05:34;94850.63;;;16.41
32039;BMP280;18549;42.286;22.688;2023-04-25T02:08:01;94841.37;;;16.42
32039;BMP280;18549;42.286;22.688;2023-04-25T02:10:27;94839.81;;;16.41
32039;BMP280;18549;42.286;22.688;2023-04-25T02:12:56;94839.81;;;16.41
32039;BMP280;18549;42.286;22.688;2023-04-25T02:15:23;94834.81;;;16.41
32039;BMP280;18549;42.286;22.688;2023-04-25T02:17:50;94836.53;;;16.40
32039;BMP280;18549;42.286;22.688;2023-04-25T02:20:17;94831.38;;;16.42
32039;BMP280;18549;42.286;22.688;2023-04-25T02:22:45;94831.53;;;16.40
32039;BMP280;18549;42.286;22.688;2023-04-25T02:25:12;94832.16;;;16.42
32039;BMP280;18549;42.286;22.688;2023-04-25T02:27:39;94831.22;;;16.43
32039;BMP280;18549;42.286;22.688;2023-04-25T02:30:08;94822.28;;;16.41
32039;BMP280;18549;42.286;22.688;2023-04-25T02:32:35;94817.31;;;16.41
32039;BMP280;18549;42.286;22.688;2023-04-25T02:35:02;94824.78;;;16.41
32039;BMP280;18549;42.286;22.688;2023-04-25T02:37:29;94816.53;;;16.40
32039;BMP280;18549;42.286;22.688;2023-04-25T02:39:56;94818.09;;;16.41
32039;BMP280;18549;42.286;22.688;2023-04-25T02:42:23;94822.28;;;16.33
32039;BMP280;18549;42.286;22.688;2023-04-25T02:44:50;94830.72;;;16.32
32039;BMP280;18549;42.286;22.688;2023-04-25T02:47:18;94831.00;;;16.29
32039;BMP280;18549;42.286;22.688;2023-04-25T02:49:45;94832.84;;;16.27
32039;BMP280;18549;42.286;22.688;2023-04-25T02:52:12;94825.22;;;16.28
32039;BMP280;18549;42.286;22.688;2023-04-25T02:54:39;94827.59;;;16.30
32039;BMP280;18549;42.286;22.688;2023-04-25T02:57:06;94826.50;;;16.32
32039;BMP280;18549;42.286;22.688;2023-04-25T02:59:33;94825.56;;;16.33
32039;BMP280;18549;42.286;22.688;2023-04-25T03:02:00;94829.78;;;16.33
32039;BMP280;18549;42.286;22.688;2023-04-25T03:04:28;94825.72;;;16.32
32039;BMP280;18549;42.286;22.688;2023-04-25T03:06:55;94827.59;;;16.30
32039;BMP280;18549;42.286;22.688;2023-04-25T03:09:22;94828.22;;;16.32
32039;BMP280;18549;42.286;22.688;2023-04-25T03:11:48;94822.59;;;16.30
32039;BMP280;18549;42.286;22.688;2023-04-25T03:14:15;94829.28;;;16.29
32039;BMP280;18549;42.286;22.688;2023-04-25T03:16:42;94828.22;;;16.32
32039;BMP280;18549;42.286;22.688;2023-04-25T03:19:08;94825.53;;;16.25
32039;BMP280;18549;42.286;22.688;2023-04-25T03:21:37;94825.97;;;16.21
32039;BMP280;18549;42.286;22.688;2023-04-25T03:24:05;94816.63;;;16.23
32039;BMP280;18549;42.286;22.688;2023-04-25T03:26:32;94809.31;;;16.12
32039;BMP280;18549;42.286;22.688;2023-04-25T03:28:59;94817.28;;;16.08
32039;BMP280;18549;42.286;22.688;2023-04-25T03:31:25;94812.91;;;16.10
32039;BMP280;18549;42.286;22.688;2023-04-25T03:33:52;94811.06;;;16.12
32039;BMP280;18549;42.286;22.688;2023-04-25T03:36:19;94822.47;;;16.14
32039;BMP280;18549;42.286;22.688;2023-04-25T03:38:47;94817.84;;;16.02
32039;BMP280;18549;42.286;22.688;2023-04-25T03:41:14;94817.22;;;16.00
32039;BMP280;18549;42.286;22.688;2023-04-25T03:43:41;94826.16;;;16.02
32039;BMP280;18549;42.286;22.688;2023-04-25T03:46:07;94818.81;;;16.09
32039;BMP280;18549;42.286;22.688;2023-04-25T03:48:34;94815.41;;;16.10
32039;BMP280;18549;42.286;22.688;2023-04-25T03:51:01;94818.56;;;16.12
32039;BMP280;18549;42.286;22.688;2023-04-25T03:53:28;94812.59;;;16.13
32039;BMP280;18549;42.286;22.688;2023-04-25T03:55:56;94815.41;;;16.10
32039;BMP280;18549;42.286;22.688;2023-04-25T03:58:23;94825.87;;;16.13
32039;BMP280;18549;42.286;22.688;2023-04-25T04:00:49;94823.56;;;16.12
32039;BMP280;18549;42.286;22.688;2023-04-25T04:03:16;94816.19;;;16.10
32039;BMP280;18549;42.286;22.688;2023-04-25T04:05:43;94818.69;;;16.10
32039;BMP280;18549;42.286;22.688;2023-04-25T04:08:10;94823.69;;;16.10
32039;BMP280;18549;42.286;22.688;2023-04-25T04:10:37;94828.03;;;16.08
32039;BMP280;18549;42.286;22.688;2023-04-25T04:13:05;94839.63;;;16.09
32039;BMP280;18549;42.286;22.688;2023-04-25T04:15:31;94825.41;;;16.10
32039;BMP280;18549;42.286;22.688;2023-04-25T04:17:59;94832.28;;;16.08
32039;BMP280;18549;42.286;22.688;2023-04-25T04:20:28;94827.28;;;16.08
32039;BMP280;18549;42.286;22.688;2023-04-25T04:22:55;94833.03;;;16.08
32039;BMP280;18549;42.286;22.688;2023-04-25T04:25:22;94823.34;;;16.05
32039;BMP280;18549;42.286;22.688;2023-04-25T04:27:50;94824.88;;;15.98
32039;BMP280;18549;42.286;22.688;2023-04-25T04:30:21;94830.78;;;15.97
32039;BMP280;18549;42.286;22.688;2023-04-25T04:32:49;94832.16;;;15.92
32039;BMP280;18549;42.286;22.688;2023-04-25T04:35:16;94832.94;;;15.92
32039;BMP280;18549;42.286;22.688;2023-04-25T04:37:43;94829.03;;;15.90
32039;BMP280;18549;42.286;22.688;2023-04-25T04:40:11;94839.63;;;15.84
32039;BMP280;18549;42.286;22.688;2023-04-25T04:42:40;94840.06;;;15.80
32039;BMP280;18549;42.286;22.688;2023-04-25T04:45:08;94834.13;;;15.81
32039;BMP280;18549;42.286;22.688;2023-04-25T04:47:36;94821.62;;;15.81
32039;BMP280;18549;42.286;22.688;2023-04-25T04:50:05;94818.19;;;15.82
32039;BMP280;18549;42.286;22.688;2023-04-25T04:52:32;94814.91;;;15.81
32039;BMP280;18549;42.286;22.688;2023-04-25T04:54:59;94819.63;;;15.84
32039;BMP280;18549;42.286;22.688;2023-04-25T04:57:26;94814.62;;;15.84
32039;BMP280;18549;42.286;22.688;2023-04-25T04:59:56;94824.97;;;15.89
32039;BMP280;18549;42.286;22.688;2023-04-25T05:02:23;94835.44;;;15.92
32039;BMP280;18549;42.286;22.688;2023-04-25T05:04:51;94832.69;;;15.95
32039;BMP280;18549;42.286;22.688;2023-04-25T05:07:21;94843.66;;;16.02
32039;BMP280;18549;42.286;22.688;2023-04-25T05:09:47;94837.56;;;16.05
32039;BMP280;18549;42.286;22.688;2023-04-25T05:12:14;94837.41;;;16.06
32039;BMP280;18549;42.286;22.688;2023-04-25T05:14:41;94835.84;;;16.05
32039;BMP280;18549;42.286;22.688;2023-04-25T05:17:08;94834.91;;;16.06
32039;BMP280;18549;42.286;22.688;2023-04-25T05:19:35;94839.63;;;16.09
32039;BMP280;18549;42.286;22.688;2023-04-25T05:22:03;94840.53;;;16.08
32039;BMP280;18549;42.286;22.688;2023-04-25T05:24:30;94835.09;;;16.13
32039;BMP280;18549;42.286;22.688;2023-04-25T05:26:57;94831.19;;;16.10
32039;BMP280;18549;42.286;22.688;2023-04-25T05:29:24;94830.88;;;16.13
32039;BMP280;18549;42.286;22.688;2023-04-25T05:31:50;94826.88;;;16.20
32039;BMP280;18549;42.286;22.688;2023-04-25T05:34:18;94820.66;;;16.24
32039;BMP280;18549;42.286;22.688;2023-04-25T05:36:45;94811.00;;;16.29
32039;BMP280;18549;42.286;22.688;2023-04-25T05:39:15;94813.34;;;16.30
32039;BMP280;18549;42.286;22.688;2023-04-25T05:41:42;94808.56;;;16.37
32039;BMP280;18549;42.286;22.688;2023-04-25T05:44:08;94817.16;;;16.42
32039;BMP280;18549;42.286;22.688;2023-04-25T05:46:36;94811.97;;;16.36
32039;BMP280;18549;42.286;22.688;2023-04-25T05:49:03;94815.09;;;16.38
32039;BMP280;18549;42.286;22.688;2023-04-25T05:51:30;94807.47;;;16.39
32039;BMP280;18549;42.286;22.688;2023-04-25T05:53:57;94805.09;;;16.38
32039;BMP280;18549;42.286;22.688;2023-04-25T05:56:26;94812.59;;;16.38
32039;BMP280;18549;42.286;22.688;2023-04-25T05:58:53;94809.78;;;16.41
32039;BMP280;18549;42.286;22.688;2023-04-25T06:01:21;94814.78;;;16.41
32039;BMP280;18549;42.286;22.688;2023-04-25T06:03:48;94821.69;;;16.39
32039;BMP280;18549;42.286;22.688;2023-04-25T06:06:16;94824.03;;;16.40
32039;BMP280;18549;42.286;22.688;2023-04-25T06:08:43;94820.16;;;16.46
32039;BMP280;18549;42.286;22.688;2023-04-25T06:11:12;94819.53;;;16.51
32039;BMP280;18549;42.286;22.688;2023-04-25T06:13:40;94815.66;;;16.57
32039;BMP280;18549;42.286;22.688;2023-04-25T06:16:07;94817.69;;;16.61
32039;BMP280;18549;42.286;22.688;2023-04-25T08:25:21;94730.12;;;18.71
32039;BMP280;18549;42.286;22.688;2023-04-25T08:27:48;94730.12;;;18.71
32039;BMP280;18549;42.286;22.688;2023-04-25T08:30:15;94743.53;;;18.26
32039;BMP280;18549;42.286;22.688;2023-04-25T08:32:42;94742.87;;;18.32
32039;BMP280;18549;42.286;22.688;2023-04-25T08:35:09;94734.69;;;18.38
32039;BMP280;18549;42.286;22.688;2023-04-25T08:37:36;94730.91;;;18.42
32039;BMP280;18549;42.286;22.688;2023-04-25T08:40:04;94734.41;;;18.63
32039;BMP280;18549;42.286;22.688;2023-04-25T08:42:34;94723.41;;;18.64
32039;BMP280;18549;42.286;22.688;2023-04-25T08:45:02;94727.72;;;18.78
32039;BMP280;18549;42.286;22.688;2023-04-25T08:47:30;94721.91;;;19.07
32039;BMP280;18549;42.286;22.688;2023-04-25T08:49:59;94732.41;;;19.11
32039;BMP280;18549;42.286;22.688;2023-04-25T08:52:32;94724.00;;;19.40
32039;BMP280;18549;42.286;22.688;2023-04-25T08:55:02;94716.91;;;19.58
32039;BMP280;18549;42.286;22.688;2023-04-25T08:57:31;94717.63;;;19.66
32039;BMP280;18549;42.286;22.688;2023-04-25T09:00:06;94715.00;;;19.46
32039;BMP280;18549;42.286;22.688;2023-04-25T09:02:34;94726.09;;;19.51
32039;BMP280;18549;42.286;22.688;2023-04-25T09:05:02;94721.88;;;19.51
32039;BMP280;18549;42.286;22.688;2023-04-25T09:07:34;94730.25;;;19.44
32039;BMP280;18549;42.286;22.688;2023-04-25T09:10:01;94735.75;;;19.25
32039;BMP280;18549;42.286;22.688;2023-04-25T09:12:29;94736.97;;;19.07
32039;BMP280;18549;42.286;22.688;2023-04-25T09:15:06;94741.94;;;18.93
32039;BMP280;18549;42.286;22.688;2023-04-25T09:17:33;94742.84;;;18.92
32039;BMP280;18549;42.286;22.688;2023-04-25T09:20:07;94737.47;;;19.03
32039;BMP280;18549;42.286;22.688;2023-04-25T09:22:35;94727.03;;;19.14
32039;BMP280;18549;42.286;22.688;2023-04-25T09:25:08;94720.00;;;19.31
32039;BMP280;18549;42.286;22.688;2023-04-25T09:27:35;94724.34;;;19.37
32039;BMP280;18549;42.286;22.688;2023-04-25T09:30:04;94720.75;;;19.54
32039;BMP280;18549;42.286;22.688;2023-04-25T09:32:31;94714.53;;;19.79
32039;BMP280;18549;42.286;22.688;2023-04-25T09:34:58;94721.66;;;19.89
32039;BMP280;18549;42.286;22.688;2023-04-25T09:37:26;94721.06;;;19.87
32039;BMP280;18549;42.286;22.688;2023-04-25T09:39:54;94724.38;;;20.02
32039;BMP280;18549;42.286;22.688;2023-04-25T09:42:25;94731.12;;;20.02
32039;BMP280;18549;42.286;22.688;2023-04-25T09:44:55;94723.41;;;20.03
32039;BMP280;18549;42.286;22.688;2023-04-25T09:47:25;94721.22;;;20.15
32039;BMP280;18549;42.286;22.688;2023-04-25T09:49:54;94723.12;;;20.13
32039;BMP280;18549;42.286;22.688;2023-04-25T09:52:22;94723.66;;;20.22
32039;BMP280;18549;42.286;22.688;2023-04-25T09:54:50;94721.41;;;20.13
32039;BMP280;18549;42.286;22.688;2023-04-25T09:57:21;94721.66;;;20.18
32039;BMP280;18549;42.286;22.688;2023-04-25T09:59:51;94721.41;;;20.13
32039;BMP280;18549;42.286;22.688;2023-04-25T10:02:20;94717.50;;;19.96
32039;BMP280;18549;42.286;22.688;2023-04-25T10:04:49;94722.94;;;19.85
32039;BMP280;18549;42.286;22.688;2023-04-25T10:07:18;94723.53;;;19.73
32039;BMP280;18549;42.286;22.688;2023-04-25T10:09:48;94724.28;;;19.82
32039;BMP280;18549;42.286;22.688;2023-04-25T10:12:16;94722.12;;;19.56
32039;BMP280;18549;42.286;22.688;2023-04-25T10:14:44;94713.88;;;19.62
32039;BMP280;18549;42.286;22.688;2023-04-25T10:17:11;94711.56;;;19.61
32039;BMP280;18549;42.286;22.688;2023-04-25T10:19:39;94716.50;;;19.54
32039;BMP280;18549;42.286;22.688;2023-04-25T10:22:13;94706.09;;;19.57
32039;BMP280;18549;42.286;22.688;2023-04-25T10:24:41;94699.53;;;19.71
32039;BMP280;18549;42.286;22.688;2023-04-25T10:27:09;94697.34;;;19.68
32039;BMP280;18549;42.286;22.688;2023-04-25T10:29:38;94688.37;;;19.87
32039;BMP280;18549;42.286;22.688;2023-04-25T10:32:05;94676.66;;;20.09
32039;BMP280;18549;42.286;22.688;2023-04-25T10:34:40;94674.88;;;20.23
32039;BMP280;18549;42.286;22.688;2023-04-25T10:37:10;94671.16;;;20.34
32039;BMP280;18549;42.286;22.688;2023-04-25T10:39:40;94665.00;;;20.36
32039;BMP280;18549;42.286;22.688;2023-04-25T10:42:08;94674.16;;;20.44
32039;BMP280;18549;42.286;22.688;2023-04-25T10:44:37;94678.22;;;20.45
32039;BMP280;18549;42.286;22.688;2023-04-25T10:47:06;94674.13;;;20.23
32039;BMP280;18549;42.286;22.688;2023-04-25T10:49:35;94677.88;;;19.84
32039;BMP280;18549;42.286;22.688;2023-04-25T10:52:15;94690.47;;;19.84
32039;BMP280;18549;42.286;22.688;2023-04-25T10:54:43;94689.66;;;19.33
32039;BMP280;18549;42.286;22.688;2023-04-25T10:57:28;94700.41;;;19.27
32039;BMP280;18549;42.286;22.688;2023-04-25T10:59:59;94700.59;;;18.81
32039;BMP280;18549;42.286;22.688;2023-04-25T11:02:26;94703.13;;;18.73
32039;BMP280;18549;42.286;22.688;2023-04-25T11:04:54;94708.56;;;18.54
32039;BMP280;18549;42.286;22.688;2023-04-25T11:07:31;94733.41;;;17.96
32039;BMP280;18549;42.286;22.688;2023-04-25T11:10:02;94733.72;;;17.93
32039;BMP280;18549;42.286;22.688;2023-04-25T11:12:30;94738.59;;;17.86
32039;BMP280;18549;42.286;22.688;2023-04-25T11:15:02;94731.56;;;17.82
32039;BMP280;18549;42.286;22.688;2023-04-25T11:17:29;94727.16;;;17.84
32039;BMP280;18549;42.286;22.688;2023-04-25T11:19:56;94724.50;;;17.85
32039;BMP280;18549;42.286;22.688;2023-04-25T11:22:25;94724.34;;;17.87
32039;BMP280;18549;42.286;22.688;2023-04-25T11:24:52;94716.25;;;17.69
32039;BMP280;18549;42.286;22.688;2023-04-25T11:27:20;94716.22;;;17.85
32039;BMP280;18549;42.286;22.688;2023-04-25T11:29:47;94720.38;;;18.00
32039;BMP280;18549;42.286;22.688;2023-04-25T11:32:15;94710.69;;;18.05
32039;BMP280;18549;42.286;22.688;2023-04-25T11:34:43;94713.50;;;18.10
32039;BMP280;18549;42.286;22.688;2023-04-25T11:37:11;94710.50;;;18.15
32039;BMP280;18549;42.286;22.688;2023-04-25T11:39:43;94695.91;;;18.18
32039;BMP280;18549;42.286;22.688;2023-04-25T11:42:11;94692.91;;;18.22
32039;BMP280;18549;42.286;22.688;2023-04-25T11:44:38;94698.53;;;18.24
32039;BMP280;18549;42.286;22.688;2023-04-25T11:47:06;94698.69;;;18.23
32039;BMP280;18549;42.286;22.688;2023-04-25T11:49:32;94703.56;;;18.24
32039;BMP280;18549;42.286;22.688;2023-04-25T11:52:01;94725.66;;;18.21
32039;BMP280;18549;42.286;22.688;2023-04-25T11:54:27;94731.97;;;18.17
32039;BMP280;18549;42.286;22.688;2023-04-25T11:56:55;94735.78;;;17.82
32039;BMP280;18549;42.286;22.688;2023-04-25T11:59:25;94733.63;;;17.79
32039;BMP280;18549;42.286;22.688;2023-04-25T12:01:52;94731.12;;;17.71
32039;BMP280;18549;42.286;22.688;2023-04-25T12:04:20;94715.31;;;17.70
32039;BMP280;18549;42.286;22.688;2023-04-25T12:06:48;94702.28;;;17.75
32039;BMP280;18549;42.286;22.688;2023-04-25T12:22:25;94722.22;;;18.82
32039;BMP280;18549;42.286;22.688;2023-04-25T12:24:52;94722.22;;;18.82
32039;BMP280;18549;42.286;22.688;2023-04-25T12:27:19;94723.50;;;18.18
32039;BMP280;18549;42.286;22.688;2023-04-25T12:29:53;94715.19;;;18.17
32039;BMP280;18549;42.286;22.688;2023-04-25T12:32:21;94711.00;;;18.10
32039;BMP280;18549;42.286;22.688;2023-04-25T12:34:47;94725.56;;;18.15
32039;BMP280;18549;42.286;22.688;2023-04-25T12:37:14;94721.66;;;18.12
32039;BMP280;18549;42.286;22.688;2023-04-25T12:39:43;94714.13;;;18.12
32039;BMP280;18549;42.286;22.688;2023-04-25T12:42:10;94726.34;;;18.15
32039;BMP280;18549;42.286;22.688;2023-04-25T12:44:38;94731.97;;;18.09
32039;BMP280;18549;42.286;22.688;2023-04-25T12:47:05;94737.13;;;18.16
32039;BMP280;18549;42.286;22.688;2023-04-25T12:49:33;94740.91;;;18.19
32039;BMP280;18549;42.286;22.688;2023-04-25T12:52:00;94752.03;;;18.17
32039;BMP280;18549;42.286;22.688;2023-04-25T12:54:28;94749.81;;;18.14
32039;BMP280;18549;42.286;22.688;2023-04-25T12:56:56;94730.88;;;18.12
32039;BMP280;18549;42.286;22.688;2023-04-25T12:59:24;94732.78;;;18.02
32039;BMP280;18549;42.286;22.688;2023-04-25T13:01:52;94716.31;;;17.99
32039;BMP280;18549;42.286;22.688;2023-04-25T13:04:19;94707.25;;;18.06
32039;BMP280;18549;42.286;22.688;2023-04-25T13:06:47;94696.87;;;18.01
32039;BMP280;18549;42.286;22.688;2023-04-25T13:09:15;94709.44;;;18.01
32039;BMP280;18549;42.286;22.688;2023-04-25T13:11:42;94716.78;;;18.03
32039;BMP280;18549;42.286;22.688;2023-04-25T13:14:11;94711.31;;;18.07
32039;BMP280;18549;42.286;22.688;2023-04-25T13:16:38;94709.25;;;18.11
32039;BMP280;18549;42.286;22.688;2023-04-25T13:19:07;94702.38;;;18.05
32039;BMP280;18549;42.286;22.688;2023-04-25T13:21:37;94703.97;;;18.06
32039;BMP280;18549;42.286;22.688;2023-04-25T13:24:05;94709.13;;;18.12
32039;BMP280;18549;42.286;22.688;2023-04-25T13:26:33;94697.16;;;18.22
32039;BMP280;18549;42.286;22.688;2023-04-25T13:29:01;94692.69;;;18.32
32039;BMP280;18549;42.286;22.688;2023-04-25T13:31:31;94693.41;;;18.48
32039;BMP280;18549;42.286;22.688;2023-04-25T13:33:58;94687.50;;;18.63
32039;BMP280;18549;42.286;22.688;2023-04-25T13:36:25;94683.38;;;18.70
32039;BMP280;18549;42.286;22.688;2023-04-25T13:38:53;94680.81;;;18.78
32039;BMP280;18549;42.286;22.688;2023-04-25T13:41:20;94679.03;;;18.86
32039;BMP280;18549;42.286;22.688;2023-04-25T13:43:48;94678.38;;;18.92
32039;BMP280;18549;42.286;22.688;2023-04-25T13:46:15;94678.50;;;18.99
32039;BMP280;18549;42.286;22.688;2023-04-25T13:48:45;94675.03;;;19.00
32039;BMP280;18549;42.286;22.688;2023-04-25T13:51:15;94669.34;;;19.06
32039;BMP280;18549;42.286;22.688;2023-04-25T13:53:43;94669.78;;;19.09
32039;BMP280;18549;42.286;22.688;2023-04-25T13:56:11;94663.66;;;19.12
32039;BMP280;18549;42.286;22.688;2023-04-25T13:58:39;94660.97;;;19.13
32039;BMP280;18549;42.286;22.688;2023-04-25T14:01:06;94660.63;;;19.16
32039;BMP280;18549;42.286;22.688;2023-04-25T14:03:34;94653.88;;;19.17
32039;BMP280;18549;42.286;22.688;2023-04-25T14:06:03;94645.69;;;19.00
32039;BMP280;18549;42.286;22.688;2023-04-25T14:08:30;94647.59;;;18.98
32039;BMP280;18549;42.286;22.688;2023-04-25T14:10:58;94650.91;;;18.91
32039;BMP280;18549;42.286;22.688;2023-04-25T14:13:26;94651.56;;;18.93
32039;BMP280;18549;42.286;22.688;2023-04-25T14:15:53;94644.16;;;18.91
32039;BMP280;18549;42.286;22.688;2023-04-25T14:18:22;94640.72;;;18.92
32039;BMP280;18549;42.286;22.688;2023-04-25T14:20:49;94643.06;;;18.94
32039;BMP280;18549;42.286;22.688;2023-04-25T14:23:18;94643.37;;;18.91
32039;BMP280;18549;42.286;22.688;2023-04-25T14:25:45;94646.66;;;18.91
32039;BMP280;18549;42.286;22.688;2023-04-25T14:28:13;94632.38;;;18.92
32039;BMP280;18549;42.286;22.688;2023-04-25T14:30:40;94641.34;;;18.72
32039;BMP280;18549;42.286;22.688;2023-04-25T14:33:08;94647.59;;;18.76
32039;BMP280;18549;42.286;22.688;2023-04-25T14:35:35;94651.66;;;18.77
32039;BMP280;18549;42.286;22.688;2023-04-25T14:38:02;94651.81;;;18.76
32039;BMP280;18549;42.286;22.688;2023-04-25T14:40:32;94652.16;;;18.73
32039;BMP280;18549;42.286;22.688;2023-04-25T14:43:00;94650.91;;;18.69
32039;BMP280;18549;42.286;22.688;2023-04-25T14:45:27;94650.13;;;18.68
32039;BMP280;18549;42.286;22.688;2023-04-25T14:47:55;94656.91;;;18.68
32039;BMP280;18549;42.286;22.688;2023-04-25T14:50:22;94650.47;;;18.65
32039;BMP280;18549;42.286;22.688;2023-04-25T14:52:49;94648.50;;;18.53
32039;BMP280;18549;42.286;22.688;2023-04-25T14:55:18;94656.25;;;18.44
32039;BMP280;18549;42.286;22.688;2023-04-25T14:57:47;94648.19;;;18.34
32039;BMP280;18549;42.286;22.688;2023-04-25T15:00:15;94657.16;;;18.28
32039;BMP280;18549;42.286;22.688;2023-04-25T15:02:42;94670.50;;;18.21
32039;BMP280;18549;42.286;22.688;2023-04-25T15:05:10;94703.31;;;18.04
32039;BMP280;18549;42.286;22.688;2023-04-25T15:07:37;94716.06;;;17.79
32039;BMP280;18549;42.286;22.688;2023-04-25T15:10:06;94741.44;;;17.83
32039;BMP280;18549;42.286;22.688;2023-04-25T15:12:39;94747.06;;;17.78
32039;BMP280;18549;42.286;22.688;2023-04-25T15:15:09;94740.69;;;17.59
32039;BMP280;18549;42.286;22.688;2023-04-25T15:17:37;94725.81;;;17.66
32039;BMP280;18549;42.286;22.688;2023-04-25T15:20:06;94724.28;;;17.33
32039;BMP280;18549;42.286;22.688;2023-04-25T15:22:35;94711.91;;;17.32
32039;BMP280;18549;42.286;22.688;2023-04-25T15:25:03;94708.94;;;17.36
32039;BMP280;18549;42.286;22.688;2023-04-25T15:27:32;94708.47;;;17.41
32039;BMP280;18549;42.286;22.688;2023-04-25T15:30:00;94696.41;;;17.44
32039;BMP280;18549;42.286;22.688;2023-04-25T15:32:29;94697.50;;;17.50
32039;BMP280;18549;42.286;22.688;2023-04-25T15:34:56;94694.06;;;17.51
32039;BMP280;18549;42.286;22.688;2023-04-25T15:37:23;94692.62;;;17.56
32039;BMP280;18549;42.286;22.688;2023-04-25T15:40:00;94688.06;;;17.59
32039;BMP280;18549;42.286;22.688;2023-04-25T15:42:29;94685.56;;;17.59
32039;BMP280;18549;42.286;22.688;2023-04-25T15:44:57;94691.72;;;17.41
32039;BMP280;18549;42.286;22.688;2023-04-25T15:47:24;94694.38;;;17.48
32039;BMP280;18549;42.286;22.688;2023-04-25T15:49:53;94681.69;;;17.49
32039;BMP280;18549;42.286;22.688;2023-04-25T15:52:21;94680.09;;;17.48
32039;BMP280;18549;42.286;22.688;2023-04-25T15:54:48;94683.09;;;17.51
32039;BMP280;18549;42.286;22.688;2023-04-25T15:57:16;94670.09;;;17.48
32039;BMP280;18549;42.286;22.688;2023-04-25T15:59:43;94675.59;;;17.44
32039;BMP280;18549;42.286;22.688;2023-04-25T16:02:12;94666.66;;;17.41
32039;BMP280;18549;42.286;22.688;2023-04-25T16:04:39;94664.00;;;17.43
32039;BMP280;18549;42.286;22.688;2023-04-25T16:07:09;94655.06;;;17.48
32039;BMP280;18549;42.286;22.688;2023-04-25T16:09:36;94661.50;;;17.51
32039;BMP280;18549;42.286;22.688;2023-04-25T16:12:04;94660.69;;;17.50
32039;BMP280;18549;42.286;22.688;2023-04-25T16:14:32;94661.66;;;17.49
32039;BMP280;18549;42.286;22.688;2023-04-25T16:16:59;94663.19;;;17.50
32039;BMP280;18549;42.286;22.688;2023-04-25T16:19:27;94663.81;;;17.52
32039;BMP280;18549;42.286;22.688;2023-04-25T16:21:54;94666.31;;;17.52